Terminal Aerodrome Forecast
Issued by NWS Northern Indiana

Home | Current Version | Previous Version | Graphics & Text | Print | Product List | Glossary On
Versions: 1 2 3 4 5 6 7 8 9 10 11 12 13 14 15 16
000
FTUS43 KIWX 121141
TAFFWA
TAF
KFWA 121141Z 1212/1312 32014G25KT 5SM -SHSN BR BKN025 OVC035
      TEMPO 1212/1216 1SM -SN BLSN OVC008
     FM121600 30017G24KT 3SM -SHSN BR OVC025
      TEMPO 1216/1220 1/2SM SN BLSN VV008
     FM130300 30011G16KT P6SM -SHSN OVC035=

USA.gov is the U.S. government's official web portal to all federal, state and local government web resources and services.